sensor_id;sensor_type;location;lat;lon;timestamp;P1;durP1;ratioP1;P2;durP2;ratioP2
10303;SDS011;5197;48.152;8.590;2022-10-16T00:01:26;5.50;;;2.00;;
10303;SDS011;5197;48.152;8.590;2022-10-16T00:03:55;8.47;;;2.63;;
10303;SDS011;5197;48.152;8.590;2022-10-16T00:06:23;3.13;;;2.20;;
10303;SDS011;5197;48.152;8.590;2022-10-16T00:08:51;3.03;;;2.03;;
10303;SDS011;5197;48.152;8.590;2022-10-16T00:11:26;4.90;;;1.70;;
10303;SDS011;5197;48.152;8.590;2022-10-16T00:13:56;2.53;;;1.67;;
10303;SDS011;5197;48.152;8.590;2022-10-16T00:16:25;1.60;;;1.50;;
10303;SDS011;5197;48.152;8.590;2022-10-16T00:18:53;1.47;;;1.37;;
10303;SDS011;5197;48.152;8.590;2022-10-16T00:21:21;2.07;;;1.80;;
10303;SDS011;5197;48.152;8.590;2022-10-16T00:23:51;4.27;;;1.60;;
10303;SDS011;5197;48.152;8.590;2022-10-16T00:26:19;3.73;;;2.00;;
10303;SDS011;5197;48.152;8.590;2022-10-16T00:28:47;3.33;;;1.60;;
10303;SDS011;5197;48.152;8.590;2022-10-16T00:31:16;2.80;;;1.63;;
10303;SDS011;5197;48.152;8.590;2022-10-16T00:33:45;3.10;;;2.40;;
10303;SDS011;5197;48.152;8.590;2022-10-16T00:36:13;3.27;;;1.90;;
10303;SDS011;5197;48.152;8.590;2022-10-16T00:38:41;3.60;;;2.10;;
10303;SDS011;5197;48.152;8.590;2022-10-16T00:41:13;3.27;;;2.70;;
10303;SDS011;5197;48.152;8.590;2022-10-16T00:43:46;3.97;;;2.50;;
10303;SDS011;5197;48.152;8.590;2022-10-16T00:46:17;5.87;;;2.63;;
10303;SDS011;5197;48.152;8.590;2022-10-16T00:49:02;3.20;;;2.73;;
10303;SDS011;5197;48.152;8.590;2022-10-16T00:51:39;4.87;;;2.47;;
10303;SDS011;5197;48.152;8.590;2022-10-16T00:54:29;2.37;;;2.10;;
10303;SDS011;5197;48.152;8.590;2022-10-16T00:56:57;3.10;;;2.00;;
10303;SDS011;5197;48.152;8.590;2022-10-16T00:59:28;3.40;;;1.80;;
10303;SDS011;5197;48.152;8.590;2022-10-16T01:01:57;3.23;;;1.97;;
10303;SDS011;5197;48.152;8.590;2022-10-16T01:04:25;2.10;;;1.90;;
10303;SDS011;5197;48.152;8.590;2022-10-16T01:09:23;2.30;;;1.40;;
10303;SDS011;5197;48.152;8.590;2022-10-16T01:22:59;3.40;;;1.50;;
10303;SDS011;5197;48.152;8.590;2022-10-16T01:31:15;1.87;;;1.77;;
10303;SDS011;5197;48.152;8.590;2022-10-16T01:33:46;6.77;;;1.67;;
10303;SDS011;5197;48.152;8.590;2022-10-16T01:36:21;3.10;;;1.53;;
10303;SDS011;5197;48.152;8.590;2022-10-16T01:38:55;2.50;;;1.50;;
10303;SDS011;5197;48.152;8.590;2022-10-16T01:41:37;1.80;;;1.70;;
10303;SDS011;5197;48.152;8.590;2022-10-16T01:44:11;1.50;;;1.40;;
10303;SDS011;5197;48.152;8.590;2022-10-16T01:46:46;2.67;;;1.60;;
10303;SDS011;5197;48.152;8.590;2022-10-16T01:49:16;2.17;;;1.60;;
10303;SDS011;5197;48.152;8.590;2022-10-16T01:51:46;1.73;;;1.60;;
10303;SDS011;5197;48.152;8.590;2022-10-16T01:54:16;3.63;;;1.57;;
10303;SDS011;5197;48.152;8.590;2022-10-16T01:56:47;2.20;;;1.50;;
10303;SDS011;5197;48.152;8.590;2022-10-16T01:59:16;1.80;;;1.70;;
10303;SDS011;5197;48.152;8.590;2022-10-16T02:01:50;1.70;;;1.60;;
10303;SDS011;5197;48.152;8.590;2022-10-16T02:04:36;1.90;;;1.60;;
10303;SDS011;5197;48.152;8.590;2022-10-16T02:07:07;1.30;;;1.30;;
10303;SDS011;5197;48.152;8.590;2022-10-16T02:09:34;3.47;;;1.33;;
10303;SDS011;5197;48.152;8.590;2022-10-16T02:12:05;2.87;;;1.73;;
10303;SDS011;5197;48.152;8.590;2022-10-16T02:14:37;2.00;;;1.47;;
10303;SDS011;5197;48.152;8.590;2022-10-16T02:17:12;2.00;;;1.50;;
10303;SDS011;5197;48.152;8.590;2022-10-16T02:19:44;1.60;;;1.50;;
10303;SDS011;5197;48.152;8.590;2022-10-16T02:25:29;1.87;;;1.50;;
10303;SDS011;5197;48.152;8.590;2022-10-16T02:30:56;1.50;;;1.40;;
10303;SDS011;5197;48.152;8.590;2022-10-16T02:33:34;2.80;;;1.57;;
10303;SDS011;5197;48.152;8.590;2022-10-16T02:36:04;1.47;;;1.40;;
10303;SDS011;5197;48.152;8.590;2022-10-16T02:38:32;1.77;;;1.47;;
10303;SDS011;5197;48.152;8.590;2022-10-16T02:41:00;1.40;;;1.40;;
10303;SDS011;5197;48.152;8.590;2022-10-16T02:43:27;2.17;;;1.33;;
10303;SDS011;5197;48.152;8.590;2022-10-16T02:45:54;1.93;;;1.40;;
10303;SDS011;5197;48.152;8.590;2022-10-16T02:48:22;1.30;;;1.30;;
10303;SDS011;5197;48.152;8.590;2022-10-16T02:50:49;4.30;;;1.40;;
10303;SDS011;5197;48.152;8.590;2022-10-16T02:53:16;3.63;;;1.40;;
10303;SDS011;5197;48.152;8.590;2022-10-16T02:55:43;2.83;;;1.80;;
10303;SDS011;5197;48.152;8.590;2022-10-16T02:58:10;1.63;;;1.30;;
10303;SDS011;5197;48.152;8.590;2022-10-16T03:00:37;1.70;;;1.60;;
10303;SDS011;5197;48.152;8.590;2022-10-16T03:03:03;1.80;;;1.40;;
10303;SDS011;5197;48.152;8.590;2022-10-16T03:05:30;1.77;;;1.50;;
10303;SDS011;5197;48.152;8.590;2022-10-16T03:07:57;3.70;;;1.60;;
10303;SDS011;5197;48.152;8.590;2022-10-16T03:10:27;1.70;;;1.60;;
10303;SDS011;5197;48.152;8.590;2022-10-16T03:12:54;1.77;;;1.60;;
10303;SDS011;5197;48.152;8.590;2022-10-16T03:15:21;1.97;;;1.53;;
10303;SDS011;5197;48.152;8.590;2022-10-16T03:17:47;3.17;;;1.77;;
10303;SDS011;5197;48.152;8.590;2022-10-16T03:20:14;2.50;;;2.00;;
10303;SDS011;5197;48.152;8.590;2022-10-16T03:22:42;3.13;;;1.67;;
10303;SDS011;5197;48.152;8.590;2022-10-16T03:25:08;1.70;;;1.60;;
10303;SDS011;5197;48.152;8.590;2022-10-16T03:27:35;4.20;;;1.70;;
10303;SDS011;5197;48.152;8.590;2022-10-16T03:30:02;5.80;;;2.00;;
10303;SDS011;5197;48.152;8.590;2022-10-16T03:32:30;2.23;;;2.03;;
10303;SDS011;5197;48.152;8.590;2022-10-16T03:34:57;4.87;;;1.90;;
10303;SDS011;5197;48.152;8.590;2022-10-16T03:37:24;2.10;;;1.87;;
10303;SDS011;5197;48.152;8.590;2022-10-16T03:39:51;2.13;;;1.93;;
10303;SDS011;5197;48.152;8.590;2022-10-16T03:42:19;3.03;;;2.10;;
10303;SDS011;5197;48.152;8.590;2022-10-16T03:44:46;2.03;;;1.93;;
10303;SDS011;5197;48.152;8.590;2022-10-16T03:47:13;4.37;;;1.60;;
10303;SDS011;5197;48.152;8.590;2022-10-16T03:49:40;1.53;;;1.43;;
10303;SDS011;5197;48.152;8.590;2022-10-16T03:52:07;4.70;;;2.00;;
10303;SDS011;5197;48.152;8.590;2022-10-16T03:54:34;2.03;;;1.90;;
10303;SDS011;5197;48.152;8.590;2022-10-16T03:57:01;3.53;;;1.70;;
10303;SDS011;5197;48.152;8.590;2022-10-16T03:59:28;2.00;;;1.80;;
10303;SDS011;5197;48.152;8.590;2022-10-16T04:01:55;1.90;;;1.80;;
10303;SDS011;5197;48.152;8.590;2022-10-16T04:04:23;3.23;;;1.87;;
10303;SDS011;5197;48.152;8.590;2022-10-16T04:06:51;2.07;;;1.97;;
10303;SDS011;5197;48.152;8.590;2022-10-16T04:09:18;2.20;;;2.10;;
10303;SDS011;5197;48.152;8.590;2022-10-16T04:11:45;4.27;;;1.90;;
10303;SDS011;5197;48.152;8.590;2022-10-16T04:14:12;1.53;;;1.53;;
10303;SDS011;5197;48.152;8.590;2022-10-16T04:16:39;2.00;;;1.80;;
10303;SDS011;5197;48.152;8.590;2022-10-16T04:19:06;2.27;;;1.80;;
10303;SDS011;5197;48.152;8.590;2022-10-16T04:21:33;1.90;;;1.70;;
10303;SDS011;5197;48.152;8.590;2022-10-16T04:24:00;1.83;;;1.73;;
10303;SDS011;5197;48.152;8.590;2022-10-16T04:26:27;3.63;;;1.70;;
10303;SDS011;5197;48.152;8.590;2022-10-16T04:28:54;1.93;;;1.80;;
10303;SDS011;5197;48.152;8.590;2022-10-16T04:31:21;2.77;;;2.00;;
10303;SDS011;5197;48.152;8.590;2022-10-16T04:33:48;1.80;;;1.70;;
10303;SDS011;5197;48.152;8.590;2022-10-16T04:36:16;1.70;;;1.60;;
10303;SDS011;5197;48.152;8.590;2022-10-16T04:38:43;2.07;;;1.87;;
10303;SDS011;5197;48.152;8.590;2022-10-16T04:41:10;3.60;;;1.77;;
10303;SDS011;5197;48.152;8.590;2022-10-16T04:43:37;2.10;;;1.50;;
10303;SDS011;5197;48.152;8.590;2022-10-16T04:46:04;1.80;;;1.33;;
10303;SDS011;5197;48.152;8.590;2022-10-16T04:48:31;1.83;;;1.37;;
10303;SDS011;5197;48.152;8.590;2022-10-16T04:50:59;1.63;;;1.53;;
10303;SDS011;5197;48.152;8.590;2022-10-16T04:53:25;2.07;;;1.33;;
10303;SDS011;5197;48.152;8.590;2022-10-16T04:55:52;1.87;;;1.47;;
10303;SDS011;5197;48.152;8.590;2022-10-16T04:58:20;1.70;;;1.53;;
10303;SDS011;5197;48.152;8.590;2022-10-16T05:00:47;1.53;;;1.43;;
10303;SDS011;5197;48.152;8.590;2022-10-16T05:03:13;1.50;;;1.40;;
10303;SDS011;5197;48.152;8.590;2022-10-16T05:05:44;2.57;;;1.40;;
10303;SDS011;5197;48.152;8.590;2022-10-16T05:08:12;2.50;;;1.47;;
10303;SDS011;5197;48.152;8.590;2022-10-16T05:10:41;1.80;;;1.70;;
10303;SDS011;5197;48.152;8.590;2022-10-16T05:13:10;2.17;;;1.70;;
10303;SDS011;5197;48.152;8.590;2022-10-16T05:15:37;2.13;;;1.60;;
10303;SDS011;5197;48.152;8.590;2022-10-16T05:18:04;3.33;;;1.50;;
10303;SDS011;5197;48.152;8.590;2022-10-16T05:20:31;1.30;;;1.20;;
10303;SDS011;5197;48.152;8.590;2022-10-16T05:22:58;2.40;;;1.67;;
10303;SDS011;5197;48.152;8.590;2022-10-16T05:25:25;2.57;;;1.43;;
10303;SDS011;5197;48.152;8.590;2022-10-16T05:27:52;1.87;;;1.40;;
10303;SDS011;5197;48.152;8.590;2022-10-16T05:30:19;5.30;;;1.70;;
10303;SDS011;5197;48.152;8.590;2022-10-16T05:32:47;2.10;;;1.70;;
10303;SDS011;5197;48.152;8.590;2022-10-16T05:35:15;2.80;;;1.47;;
10303;SDS011;5197;48.152;8.590;2022-10-16T05:37:43;2.83;;;1.43;;
10303;SDS011;5197;48.152;8.590;2022-10-16T05:40:11;2.20;;;1.40;;
10303;SDS011;5197;48.152;8.590;2022-10-16T05:42:39;1.70;;;1.60;;
10303;SDS011;5197;48.152;8.590;2022-10-16T05:45:08;3.63;;;1.73;;
10303;SDS011;5197;48.152;8.590;2022-10-16T05:47:38;2.10;;;1.53;;
10303;SDS011;5197;48.152;8.590;2022-10-16T05:50:05;3.00;;;1.77;;
10303;SDS011;5197;48.152;8.590;2022-10-16T05:52:32;2.03;;;1.40;;
10303;SDS011;5197;48.152;8.590;2022-10-16T05:54:59;3.53;;;1.60;;
10303;SDS011;5197;48.152;8.590;2022-10-16T05:57:26;1.30;;;1.20;;
10303;SDS011;5197;48.152;8.590;2022-10-16T05:59:53;2.53;;;1.50;;
10303;SDS011;5197;48.152;8.590;2022-10-16T06:02:20;3.67;;;1.30;;
10303;SDS011;5197;48.152;8.590;2022-10-16T06:04:47;1.60;;;1.40;;
10303;SDS011;5197;48.152;8.590;2022-10-16T06:07:14;2.07;;;1.20;;
10303;SDS011;5197;48.152;8.590;2022-10-16T06:09:41;3.07;;;1.40;;
10303;SDS011;5197;48.152;8.590;2022-10-16T06:12:08;2.70;;;1.60;;
10303;SDS011;5197;48.152;8.590;2022-10-16T06:14:35;1.97;;;1.40;;
10303;SDS011;5197;48.152;8.590;2022-10-16T06:17:02;1.20;;;1.20;;
10303;SDS011;5197;48.152;8.590;2022-10-16T06:19:29;3.53;;;1.47;;
10303;SDS011;5197;48.152;8.590;2022-10-16T06:21:57;1.60;;;1.50;;
10303;SDS011;5197;48.152;8.590;2022-10-16T06:24:25;1.90;;;1.50;;
10303;SDS011;5197;48.152;8.590;2022-10-16T06:26:52;3.37;;;1.67;;
10303;SDS011;5197;48.152;8.590;2022-10-16T06:29:19;2.27;;;2.07;;
10303;SDS011;5197;48.152;8.590;2022-10-16T06:31:46;2.70;;;1.60;;
10303;SDS011;5197;48.152;8.590;2022-10-16T06:34:13;3.47;;;1.37;;
10303;SDS011;5197;48.152;8.590;2022-10-16T06:36:40;2.33;;;1.57;;
10303;SDS011;5197;48.152;8.590;2022-10-16T06:39:07;1.33;;;1.30;;
10303;SDS011;5197;48.152;8.590;2022-10-16T06:41:34;2.93;;;1.60;;
10303;SDS011;5197;48.152;8.590;2022-10-16T06:44:04;1.90;;;1.40;;
10303;SDS011;5197;48.152;8.590;2022-10-16T06:46:32;1.47;;;1.37;;
10303;SDS011;5197;48.152;8.590;2022-10-16T06:48:59;4.30;;;1.50;;
10303;SDS011;5197;48.152;8.590;2022-10-16T06:51:26;1.50;;;1.40;;
10303;SDS011;5197;48.152;8.590;2022-10-16T06:53:54;1.63;;;1.30;;
10303;SDS011;5197;48.152;8.590;2022-10-16T06:56:32;3.47;;;1.50;;
10303;SDS011;5197;48.152;8.590;2022-10-16T06:58:59;2.97;;;1.30;;
10303;SDS011;5197;48.152;8.590;2022-10-16T07:01:27;4.93;;;1.40;;
10303;SDS011;5197;48.152;8.590;2022-10-16T07:03:55;2.90;;;1.40;;
10303;SDS011;5197;48.152;8.590;2022-10-16T07:06:23;1.40;;;1.40;;
10303;SDS011;5197;48.152;8.590;2022-10-16T07:08:51;1.57;;;1.47;;
10303;SDS011;5197;48.152;8.590;2022-10-16T07:11:22;1.90;;;1.47;;
10303;SDS011;5197;48.152;8.590;2022-10-16T07:13:50;2.67;;;1.30;;
10303;SDS011;5197;48.152;8.590;2022-10-16T07:16:25;3.17;;;1.23;;
10303;SDS011;5197;48.152;8.590;2022-10-16T07:18:55;2.97;;;1.33;;
10303;SDS011;5197;48.152;8.590;2022-10-16T07:21:31;1.40;;;1.30;;
10303;SDS011;5197;48.152;8.590;2022-10-16T07:24:02;4.50;;;1.30;;
10303;SDS011;5197;48.152;8.590;2022-10-16T07:26:32;2.53;;;1.50;;
10303;SDS011;5197;48.152;8.590;2022-10-16T07:29:00;1.90;;;1.40;;
10303;SDS011;5197;48.152;8.590;2022-10-16T07:31:27;1.30;;;1.20;;
10303;SDS011;5197;48.152;8.590;2022-10-16T07:33:54;4.37;;;1.40;;
10303;SDS011;5197;48.152;8.590;2022-10-16T07:36:24;2.60;;;1.30;;
10303;SDS011;5197;48.152;8.590;2022-10-16T07:38:51;1.90;;;1.10;;
10303;SDS011;5197;48.152;8.590;2022-10-16T07:41:24;1.57;;;1.47;;
10303;SDS011;5197;48.152;8.590;2022-10-16T07:43:51;1.77;;;1.33;;
10303;SDS011;5197;48.152;8.590;2022-10-16T07:46:19;4.70;;;1.50;;
10303;SDS011;5197;48.152;8.590;2022-10-16T07:48:47;1.57;;;1.20;;
10303;SDS011;5197;48.152;8.590;2022-10-16T07:51:16;1.57;;;1.20;;
10303;SDS011;5197;48.152;8.590;2022-10-16T07:53:44;3.27;;;1.50;;
10303;SDS011;5197;48.152;8.590;2022-10-16T07:56:11;2.90;;;1.40;;
10303;SDS011;5197;48.152;8.590;2022-10-16T07:58:39;2.90;;;1.40;;
10303;SDS011;5197;48.152;8.590;2022-10-16T08:01:07;2.40;;;1.83;;
10303;SDS011;5197;48.152;8.590;2022-10-16T08:03:36;3.27;;;2.90;;
10303;SDS011;5197;48.152;8.590;2022-10-16T08:06:04;3.33;;;2.03;;
10303;SDS011;5197;48.152;8.590;2022-10-16T08:08:31;3.00;;;1.80;;
10303;SDS011;5197;48.152;8.590;2022-10-16T08:10:58;2.77;;;1.90;;
10303;SDS011;5197;48.152;8.590;2022-10-16T08:13:25;7.40;;;2.50;;
10303;SDS011;5197;48.152;8.590;2022-10-16T08:15:53;2.50;;;1.80;;
10303;SDS011;5197;48.152;8.590;2022-10-16T08:18:20;2.43;;;2.27;;
10303;SDS011;5197;48.152;8.590;2022-10-16T08:20:47;2.27;;;2.10;;
10303;SDS011;5197;48.152;8.590;2022-10-16T08:23:14;2.03;;;1.90;;
10303;SDS011;5197;48.152;8.590;2022-10-16T08:25:41;2.23;;;1.50;;
10303;SDS011;5197;48.152;8.590;2022-10-16T08:28:09;3.90;;;1.60;;
10303;SDS011;5197;48.152;8.590;2022-10-16T08:30:37;1.73;;;1.63;;
10303;SDS011;5197;48.152;8.590;2022-10-16T08:33:04;1.70;;;1.60;;
10303;SDS011;5197;48.152;8.590;2022-10-16T08:35:33;2.47;;;1.40;;
10303;SDS011;5197;48.152;8.590;2022-10-16T08:38:00;1.83;;;1.67;;
10303;SDS011;5197;48.152;8.590;2022-10-16T08:40:29;5.83;;;2.20;;
10303;SDS011;5197;48.152;8.590;2022-10-16T08:43:06;2.53;;;2.33;;
10303;SDS011;5197;48.152;8.590;2022-10-16T08:48:54;4.10;;;1.90;;
10303;SDS011;5197;48.152;8.590;2022-10-16T08:51:27;2.27;;;1.70;;
10303;SDS011;5197;48.152;8.590;2022-10-16T08:53:58;5.23;;;1.90;;
10303;SDS011;5197;48.152;8.590;2022-10-16T08:56:46;3.80;;;2.17;;
10303;SDS011;5197;48.152;8.590;2022-10-16T08:59:13;2.03;;;1.83;;
10303;SDS011;5197;48.152;8.590;2022-10-16T09:01:44;2.57;;;1.80;;
10303;SDS011;5197;48.152;8.590;2022-10-16T09:10:26;3.53;;;1.50;;
10303;SDS011;5197;48.152;8.590;2022-10-16T09:18:30;2.07;;;1.20;;
10303;SDS011;5197;48.152;8.590;2022-10-16T09:21:19;3.33;;;1.60;;
10303;SDS011;5197;48.152;8.590;2022-10-16T09:23:50;5.07;;;1.73;;
10303;SDS011;5197;48.152;8.590;2022-10-16T09:26:18;5.30;;;2.20;;
10303;SDS011;5197;48.152;8.590;2022-10-16T09:28:48;2.13;;;1.20;;
10303;SDS011;5197;48.152;8.590;2022-10-16T09:31:18;1.47;;;1.40;;
10303;SDS011;5197;48.152;8.590;2022-10-16T09:33:59;3.57;;;1.57;;
10303;SDS011;5197;48.152;8.590;2022-10-16T09:36:35;1.37;;;1.37;;
10303;SDS011;5197;48.152;8.590;2022-10-16T09:39:08;1.70;;;1.20;;
10303;SDS011;5197;48.152;8.590;2022-10-16T09:41:37;2.30;;;1.40;;
10303;SDS011;5197;48.152;8.590;2022-10-16T09:44:16;2.40;;;1.67;;
10303;SDS011;5197;48.152;8.590;2022-10-16T09:47:14;2.17;;;1.20;;
10303;SDS011;5197;48.152;8.590;2022-10-16T09:49:50;1.40;;;1.30;;
10303;SDS011;5197;48.152;8.590;2022-10-16T09:52:21;2.10;;;1.30;;
10303;SDS011;5197;48.152;8.590;2022-10-16T09:54:54;1.30;;;1.30;;
10303;SDS011;5197;48.152;8.590;2022-10-16T09:57:22;1.93;;;1.47;;
10303;SDS011;5197;48.152;8.590;2022-10-16T09:59:51;1.60;;;1.50;;
10303;SDS011;5197;48.152;8.590;2022-10-16T10:02:18;3.43;;;1.60;;
10303;SDS011;5197;48.152;8.590;2022-10-16T10:04:50;1.10;;;1.10;;
10303;SDS011;5197;48.152;8.590;2022-10-16T10:07:42;3.47;;;1.20;;
10303;SDS011;5197;48.152;8.590;2022-10-16T10:10:19;4.43;;;1.40;;
10303;SDS011;5197;48.152;8.590;2022-10-16T10:12:52;2.17;;;1.40;;
10303;SDS011;5197;48.152;8.590;2022-10-16T10:15:20;1.50;;;1.20;;
10303;SDS011;5197;48.152;8.590;2022-10-16T10:17:52;3.10;;;1.30;;
10303;SDS011;5197;48.152;8.590;2022-10-16T10:22:58;1.30;;;1.17;;
10303;SDS011;5197;48.152;8.590;2022-10-16T10:36:15;1.80;;;1.20;;
10303;SDS011;5197;48.152;8.590;2022-10-16T10:39:12;1.77;;;1.50;;
10303;SDS011;5197;48.152;8.590;2022-10-16T10:50:50;1.87;;;1.30;;
10303;SDS011;5197;48.152;8.590;2022-10-16T10:56:34;5.43;;;1.48;;
10303;SDS011;5197;48.152;8.590;2022-10-16T11:05:06;1.00;;;1.00;;
10303;SDS011;5197;48.152;8.590;2022-10-16T11:07:54;1.95;;;1.20;;
10303;SDS011;5197;48.152;8.590;2022-10-16T11:13:23;1.35;;;1.08;;
10303;SDS011;5197;48.152;8.590;2022-10-16T11:15:52;1.70;;;1.20;;
10303;SDS011;5197;48.152;8.590;2022-10-16T11:18:38;1.10;;;1.10;;
10303;SDS011;5197;48.152;8.590;2022-10-16T11:21:10;2.63;;;1.10;;
10303;SDS011;5197;48.152;8.590;2022-10-16T11:26:20;1.05;;;1.05;;
10303;SDS011;5197;48.152;8.590;2022-10-16T11:28:55;3.20;;;1.40;;
10303;SDS011;5197;48.152;8.590;2022-10-16T11:34:28;1.10;;;1.00;;
10303;SDS011;5197;48.152;8.590;2022-10-16T11:37:18;1.00;;;1.00;;
10303;SDS011;5197;48.152;8.590;2022-10-16T11:40:25;1.70;;;1.20;;
10303;SDS011;5197;48.152;8.590;2022-10-16T11:43:09;2.22;;;1.20;;
10303;SDS011;5197;48.152;8.590;2022-10-16T11:51:05;1.25;;;1.15;;
10303;SDS011;5197;48.152;8.590;2022-10-16T11:53:53;1.35;;;1.20;;
10303;SDS011;5197;48.152;8.590;2022-10-16T11:56:29;1.25;;;1.20;;
10303;SDS011;5197;48.152;8.590;2022-10-16T11:59:00;1.02;;;1.02;;
10303;SDS011;5197;48.152;8.590;2022-10-16T12:01:46;2.85;;;1.17;;
10303;SDS011;5197;48.152;8.590;2022-10-16T12:04:26;1.20;;;1.08;;
10303;SDS011;5197;48.152;8.590;2022-10-16T12:07:24;2.30;;;0.90;;
10303;SDS011;5197;48.152;8.590;2022-10-16T12:09:58;1.30;;;1.20;;
10303;SDS011;5197;48.152;8.590;2022-10-16T12:12:53;3.65;;;1.20;;
10303;SDS011;5197;48.152;8.590;2022-10-16T12:15:27;1.55;;;1.00;;
10303;SDS011;5197;48.152;8.590;2022-10-16T12:18:22;2.30;;;1.00;;
10303;SDS011;5197;48.152;8.590;2022-10-16T12:20:54;2.42;;;1.20;;
10303;SDS011;5197;48.152;8.590;2022-10-16T12:23:30;1.20;;;1.10;;
10303;SDS011;5197;48.152;8.590;2022-10-16T12:32:26;3.33;;;1.23;;
10303;SDS011;5197;48.152;8.590;2022-10-16T12:35:19;1.40;;;1.23;;
10303;SDS011;5197;48.152;8.590;2022-10-16T12:37:48;4.68;;;1.20;;
10303;SDS011;5197;48.152;8.590;2022-10-16T12:40:27;4.40;;;1.08;;
10303;SDS011;5197;48.152;8.590;2022-10-16T12:42:57;1.38;;;1.23;;
10303;SDS011;5197;48.152;8.590;2022-10-16T12:45:26;5.38;;;1.33;;
10303;SDS011;5197;48.152;8.590;2022-10-16T12:47:54;1.45;;;1.30;;
10303;SDS011;5197;48.152;8.590;2022-10-16T12:50:27;1.40;;;1.30;;
10303;SDS011;5197;48.152;8.590;2022-10-16T12:52:58;4.43;;;1.17;;
10303;SDS011;5197;48.152;8.590;2022-10-16T12:55:25;4.93;;;1.23;;
10303;SDS011;5197;48.152;8.590;2022-10-16T13:00:54;1.38;;;1.15;;
10303;SDS011;5197;48.152;8.590;2022-10-16T13:03:31;1.02;;;0.95;;
10303;SDS011;5197;48.152;8.590;2022-10-16T13:08:54;2.92;;;1.05;;
10303;SDS011;5197;48.152;8.590;2022-10-16T13:20:20;4.05;;;1.20;;
10303;SDS011;5197;48.152;8.590;2022-10-16T13:22:51;2.78;;;1.10;;
10303;SDS011;5197;48.152;8.590;2022-10-16T13:28:29;2.47;;;1.13;;
10303;SDS011;5197;48.152;8.590;2022-10-16T13:30:59;2.90;;;1.08;;
10303;SDS011;5197;48.152;8.590;2022-10-16T13:33:40;1.55;;;1.15;;
10303;SDS011;5197;48.152;8.590;2022-10-16T13:36:20;0.98;;;0.98;;
10303;SDS011;5197;48.152;8.590;2022-10-16T13:39:06;1.20;;;1.10;;
10303;SDS011;5197;48.152;8.590;2022-10-16T13:41:40;2.88;;;1.38;;
10303;SDS011;5197;48.152;8.590;2022-10-16T13:44:15;0.90;;;0.90;;
10303;SDS011;5197;48.152;8.590;2022-10-16T13:46:46;1.42;;;1.27;;
10303;SDS011;5197;48.152;8.590;2022-10-16T13:49:16;1.02;;;1.02;;
10303;SDS011;5197;48.152;8.590;2022-10-16T13:51:56;3.00;;;1.30;;
10303;SDS011;5197;48.152;8.590;2022-10-16T13:54:25;1.30;;;1.20;;
10303;SDS011;5197;48.152;8.590;2022-10-16T13:56:55;1.10;;;1.10;;
10303;SDS011;5197;48.152;8.590;2022-10-16T13:59:35;1.95;;;1.20;;
10303;SDS011;5197;48.152;8.590;2022-10-16T14:04:55;1.10;;;1.10;;
10303;SDS011;5197;48.152;8.590;2022-10-16T14:07:28;2.75;;;1.20;;
10303;SDS011;5197;48.152;8.590;2022-10-16T14:09:59;1.30;;;1.20;;
10303;SDS011;5197;48.152;8.590;2022-10-16T14:12:33;3.78;;;0.90;;
10303;SDS011;5197;48.152;8.590;2022-10-16T14:15:00;1.02;;;1.02;;
10303;SDS011;5197;48.152;8.590;2022-10-16T14:17:32;3.83;;;1.30;;
10303;SDS011;5197;48.152;8.590;2022-10-16T14:20:02;1.40;;;1.30;;
10303;SDS011;5197;48.152;8.590;2022-10-16T14:22:41;1.08;;;1.08;;
10303;SDS011;5197;48.152;8.590;2022-10-16T14:28:14;2.30;;;1.17;;
10303;SDS011;5197;48.152;8.590;2022-10-16T14:30:50;3.58;;;1.02;;
10303;SDS011;5197;48.152;8.590;2022-10-16T14:33:22;1.70;;;1.25;;
10303;SDS011;5197;48.152;8.590;2022-10-16T14:38:41;1.10;;;1.10;;
10303;SDS011;5197;48.152;8.590;2022-10-16T14:41:09;2.53;;;1.20;;
10303;SDS011;5197;48.152;8.590;2022-10-16T14:43:37;2.88;;;1.27;;
10303;SDS011;5197;48.152;8.590;2022-10-16T14:46:12;6.40;;;1.02;;
10303;SDS011;5197;48.152;8.590;2022-10-16T14:48:45;1.85;;;1.10;;
10303;SDS011;5197;48.152;8.590;2022-10-16T14:51:15;4.05;;;1.45;;
10303;SDS011;5197;48.152;8.590;2022-10-16T14:53:43;1.55;;;1.45;;
10303;SDS011;5197;48.152;8.590;2022-10-16T14:56:18;7.22;;;1.50;;
10303;SDS011;5197;48.152;8.590;2022-10-16T14:58:48;1.63;;;0.90;;
10303;SDS011;5197;48.152;8.590;2022-10-16T15:01:17;1.30;;;1.10;;
10303;SDS011;5197;48.152;8.590;2022-10-16T15:03:45;0.95;;;0.95;;
10303;SDS011;5197;48.152;8.590;2022-10-16T15:06:13;2.10;;;1.13;;
10303;SDS011;5197;48.152;8.590;2022-10-16T15:08:41;1.48;;;1.40;;
10303;SDS011;5197;48.152;8.590;2022-10-16T15:11:12;4.05;;;1.50;;
10303;SDS011;5197;48.152;8.590;2022-10-16T15:13:42;2.38;;;1.58;;
10303;SDS011;5197;48.152;8.590;2022-10-16T15:16:12;4.55;;;1.23;;
10303;SDS011;5197;48.152;8.590;2022-10-16T15:18:41;2.90;;;1.30;;
10303;SDS011;5197;48.152;8.590;2022-10-16T15:21:23;5.18;;;1.50;;
10303;SDS011;5197;48.152;8.590;2022-10-16T15:23:55;2.50;;;1.15;;
10303;SDS011;5197;48.152;8.590;2022-10-16T15:26:23;2.53;;;1.33;;
10303;SDS011;5197;48.152;8.590;2022-10-16T15:28:51;4.50;;;1.50;;
10303;SDS011;5197;48.152;8.590;2022-10-16T15:31:19;1.38;;;1.38;;
10303;SDS011;5197;48.152;8.590;2022-10-16T15:33:53;3.15;;;1.50;;
10303;SDS011;5197;48.152;8.590;2022-10-16T15:36:25;2.83;;;1.65;;
10303;SDS011;5197;48.152;8.590;2022-10-16T15:38:53;2.50;;;2.00;;
10303;SDS011;5197;48.152;8.590;2022-10-16T15:41:20;3.83;;;1.70;;
10303;SDS011;5197;48.152;8.590;2022-10-16T15:43:48;1.45;;;1.25;;
10303;SDS011;5197;48.152;8.590;2022-10-16T15:46:20;2.70;;;1.60;;
10303;SDS011;5197;48.152;8.590;2022-10-16T15:48:48;1.20;;;1.20;;
10303;SDS011;5197;48.152;8.590;2022-10-16T15:51:17;2.22;;;1.50;;
10303;SDS011;5197;48.152;8.590;2022-10-16T15:53:44;1.70;;;1.60;;
10303;SDS011;5197;48.152;8.590;2022-10-16T15:56:13;2.10;;;1.83;;
10303;SDS011;5197;48.152;8.590;2022-10-16T15:58:40;2.35;;;1.90;;
10303;SDS011;5197;48.152;8.590;2022-10-16T16:01:07;4.70;;;1.23;;
10303;SDS011;5197;48.152;8.590;2022-10-16T16:03:37;2.45;;;1.50;;
10303;SDS011;5197;48.152;8.590;2022-10-16T16:06:07;7.88;;;1.50;;
10303;SDS011;5197;48.152;8.590;2022-10-16T16:08:36;2.50;;;1.80;;
10303;SDS011;5197;48.152;8.590;2022-10-16T16:11:07;2.30;;;1.65;;
10303;SDS011;5197;48.152;8.590;2022-10-16T16:13:36;2.17;;;1.75;;
10303;SDS011;5197;48.152;8.590;2022-10-16T16:16:08;3.50;;;1.55;;
10303;SDS011;5197;48.152;8.590;2022-10-16T16:18:37;4.05;;;1.20;;
10303;SDS011;5197;48.152;8.590;2022-10-16T16:21:05;3.45;;;1.50;;
10303;SDS011;5197;48.152;8.590;2022-10-16T16:23:32;1.42;;;1.27;;
10303;SDS011;5197;48.152;8.590;2022-10-16T16:26:03;6.38;;;1.40;;
10303;SDS011;5197;48.152;8.590;2022-10-16T16:28:30;4.10;;;1.10;;
10303;SDS011;5197;48.152;8.590;2022-10-16T16:30:58;2.50;;;1.50;;
10303;SDS011;5197;48.152;8.590;2022-10-16T16:33:25;2.55;;;1.35;;
10303;SDS011;5197;48.152;8.590;2022-10-16T16:35:56;1.23;;;1.13;;
10303;SDS011;5197;48.152;8.590;2022-10-16T16:38:25;12.73;;;2.83;;
10303;SDS011;5197;48.152;8.590;2022-10-16T16:40:52;2.80;;;1.88;;
10303;SDS011;5197;48.152;8.590;2022-10-16T16:43:25;2.78;;;1.33;;
10303;SDS011;5197;48.152;8.590;2022-10-16T16:45:53;5.97;;;1.27;;
10303;SDS011;5197;48.152;8.590;2022-10-16T16:48:21;3.92;;;1.30;;
10303;SDS011;5197;48.152;8.590;2022-10-16T16:50:48;2.42;;;1.30;;
10303;SDS011;5197;48.152;8.590;2022-10-16T16:53:15;2.17;;;1.50;;
10303;SDS011;5197;48.152;8.590;2022-10-16T16:55:42;1.35;;;1.23;;
10303;SDS011;5197;48.152;8.590;2022-10-16T16:58:09;2.55;;;1.30;;
10303;SDS011;5197;48.152;8.590;2022-10-16T17:00:36;1.30;;;1.20;;
10303;SDS011;5197;48.152;8.590;2022-10-16T17:03:03;1.42;;;1.27;;
10303;SDS011;5197;48.152;8.590;2022-10-16T17:05:30;3.25;;;1.38;;
10303;SDS011;5197;48.152;8.590;2022-10-16T17:07:57;1.98;;;1.05;;
10303;SDS011;5197;48.152;8.590;2022-10-16T17:10:24;1.98;;;1.20;;
10303;SDS011;5197;48.152;8.590;2022-10-16T17:12:51;1.25;;;1.17;;
10303;SDS011;5197;48.152;8.590;2022-10-16T17:15:21;2.25;;;1.60;;
10303;SDS011;5197;48.152;8.590;2022-10-16T17:17:48;1.30;;;1.25;;
10303;SDS011;5197;48.152;8.590;2022-10-16T17:20:15;1.77;;;1.60;;